CheckWX is a tool to help pilots better visualize weather data.  It is not intended as a substitute for an official pre-flight weather briefing.

04:53:50 UTC

3K3 METAR
Syracuse-Hamilton County Municipal Airport
Syracuse, Kansas, USA
Current

19 mins ago

K3K3 260435Z AUTO 16006KT 10SM CLR 23/20 A2980 RMK AO2
Observed
Aug-26 @ 04:35 UTC
Wind
  • 160° at 6 KTS
Visibility
10 SM
Flight Rules
VFR
Cloud Levels
  • Clear skies
Temperature
23°C / 73°F
Dewpoint
20°C / 68°F
Humidity
83%
Altimeter
29.8" Hg
Pressure
1009.12 hPa
Previous

39 mins ago

K3K3 260415Z AUTO 14008KT 10SM CLR 22/20 A2980 RMK AO2
Observed
Aug-26 @ 04:15 UTC
Wind
  • 140° at 8 KTS
Visibility
10 SM
Flight Rules
VFR
Cloud Levels
  • Clear skies
Temperature
22°C / 72°F
Dewpoint
20°C / 68°F
Humidity
88%
Altimeter
29.8" Hg
Pressure
1009.12 hPa
Previous

59 mins ago

K3K3 260355Z AUTO 13007KT 10SM CLR 23/20 A2980 RMK AO2
Observed
Aug-26 @ 03:55 UTC
Wind
  • 130° at 7 KTS
Visibility
10 SM
Flight Rules
VFR
Cloud Levels
  • Clear skies
Temperature
23°C / 73°F
Dewpoint
20°C / 68°F
Humidity
83%
Altimeter
29.8" Hg
Pressure
1009.12 hPa